sensor_id;sensor_type;location;lat;lon;timestamp;pressure;altitude;pressure_sealevel;temperature;humidity
78168;BME280;67410;42.698;23.378;2024-03-23T00:54:02;95653.53;;;1.92;74.16
78168;BME280;67410;42.698;23.378;2024-03-23T00:56:29;95649.31;;;1.83;74.74
78168;BME280;67410;42.698;23.378;2024-03-23T00:58:55;95657.06;;;1.75;74.81
78168;BME280;67410;42.698;23.378;2024-03-23T01:01:21;95647.47;;;1.67;74.31
78168;BME280;67410;42.698;23.378;2024-03-23T01:03:48;95650.72;;;1.61;74.42
78168;BME280;67410;42.698;23.378;2024-03-23T01:06:14;95642.75;;;1.62;74.42
78168;BME280;67410;42.698;23.378;2024-03-23T01:08:40;95645.38;;;1.62;74.87
78168;BME280;67410;42.698;23.378;2024-03-23T01:11:06;95642.09;;;1.60;74.71
78168;BME280;67410;42.698;23.378;2024-03-23T01:13:32;95640.66;;;1.66;75.17
78168;BME280;67410;42.698;23.378;2024-03-23T01:15:58;95640.47;;;1.59;75.09
78168;BME280;67410;42.698;23.378;2024-03-23T01:18:24;95641.28;;;1.60;75.33
78168;BME280;67410;42.698;23.378;2024-03-23T01:20:52;95637.03;;;1.51;75.66
78168;BME280;67410;42.698;23.378;2024-03-23T01:23:18;95631.69;;;1.52;76.14
78168;BME280;67410;42.698;23.378;2024-03-23T01:25:51;95652.13;;;1.55;76.59
78168;BME280;67410;42.698;23.378;2024-03-23T01:28:18;95649.03;;;1.52;76.08
78168;BME280;67410;42.698;23.378;2024-03-23T01:30:44;95644.47;;;1.46;75.08
78168;BME280;67410;42.698;23.378;2024-03-23T01:33:10;95638.78;;;1.42;75.60
78168;BME280;67410;42.698;23.378;2024-03-23T01:35:36;95647.84;;;1.38;74.14
78168;BME280;67410;42.698;23.378;2024-03-23T01:38:02;95647.22;;;1.36;74.98
78168;BME280;67410;42.698;23.378;2024-03-23T01:40:28;95646.22;;;1.37;75.60
78168;BME280;67410;42.698;23.378;2024-03-23T01:43:02;95648.03;;;1.37;75.98
78168;BME280;67410;42.698;23.378;2024-03-23T01:45:30;95645.38;;;1.28;76.03
78168;BME280;67410;42.698;23.378;2024-03-23T01:47:56;95643.25;;;1.24;76.25
78168;BME280;67410;42.698;23.378;2024-03-23T01:50:22;95640.16;;;1.20;76.77
78168;BME280;67410;42.698;23.378;2024-03-23T01:52:50;95645.19;;;1.22;77.25
78168;BME280;67410;42.698;23.378;2024-03-23T01:55:16;95638.00;;;1.16;77.84
78168;BME280;67410;42.698;23.378;2024-03-23T01:57:42;95648.59;;;1.22;77.86
78168;BME280;67410;42.698;23.378;2024-03-23T02:00:09;95644.22;;;1.23;78.60
78168;BME280;67410;42.698;23.378;2024-03-23T02:02:47;95638.97;;;1.15;78.59
78168;BME280;67410;42.698;23.378;2024-03-23T02:05:13;95649.56;;;1.21;78.71
78168;BME280;67410;42.698;23.378;2024-03-23T02:07:40;95641.25;;;1.18;77.30
78168;BME280;67410;42.698;23.378;2024-03-23T02:10:08;95643.34;;;1.14;76.98
78168;BME280;67410;42.698;23.378;2024-03-23T02:12:36;95654.22;;;1.18;77.68
78168;BME280;67410;42.698;23.378;2024-03-23T02:15:02;95646.28;;;1.19;78.09
78168;BME280;67410;42.698;23.378;2024-03-23T02:17:33;95650.50;;;1.20;77.96
78168;BME280;67410;42.698;23.378;2024-03-23T02:20:00;95649.19;;;1.16;77.52
78168;BME280;67410;42.698;23.378;2024-03-23T02:22:36;95648.88;;;1.19;78.69
78168;BME280;67410;42.698;23.378;2024-03-23T02:25:06;95655.56;;;1.22;78.41
78168;BME280;67410;42.698;23.378;2024-03-23T02:27:32;95655.19;;;1.17;79.76
78168;BME280;67410;42.698;23.378;2024-03-23T02:30:00;95653.19;;;1.02;77.96
78168;BME280;67410;42.698;23.378;2024-03-23T02:32:26;95659.50;;;1.00;77.86
78168;BME280;67410;42.698;23.378;2024-03-23T02:34:52;95666.44;;;0.99;78.57
78168;BME280;67410;42.698;23.378;2024-03-23T02:37:19;95657.00;;;0.90;79.26
78168;BME280;67410;42.698;23.378;2024-03-23T02:39:45;95662.09;;;0.82;78.11
78168;BME280;67410;42.698;23.378;2024-03-23T02:42:11;95653.69;;;0.80;78.78
78168;BME280;67410;42.698;23.378;2024-03-23T02:44:37;95650.16;;;0.81;78.63
78168;BME280;67410;42.698;23.378;2024-03-23T02:47:03;95656.75;;;0.76;77.75
78168;BME280;67410;42.698;23.378;2024-03-23T02:49:29;95655.88;;;0.67;78.55
78168;BME280;67410;42.698;23.378;2024-03-23T02:51:55;95652.00;;;0.71;79.16
78168;BME280;67410;42.698;23.378;2024-03-23T02:54:21;95659.78;;;0.71;80.24
78168;BME280;67410;42.698;23.378;2024-03-23T02:56:47;95654.75;;;0.70;78.58
78168;BME280;67410;42.698;23.378;2024-03-23T02:59:13;95645.78;;;0.64;79.26
78168;BME280;67410;42.698;23.378;2024-03-23T03:01:39;95653.19;;;0.59;79.52
78168;BME280;67410;42.698;23.378;2024-03-23T03:04:05;95654.53;;;0.63;80.77
78168;BME280;67410;42.698;23.378;2024-03-23T03:06:31;95648.38;;;0.64;80.79
78168;BME280;67410;42.698;23.378;2024-03-23T03:08:57;95656.16;;;0.64;79.68
78168;BME280;67410;42.698;23.378;2024-03-23T03:11:23;95660.53;;;0.63;79.40
78168;BME280;67410;42.698;23.378;2024-03-23T03:13:50;95648.16;;;0.57;80.51
78168;BME280;67410;42.698;23.378;2024-03-23T03:16:16;95653.88;;;0.61;81.48
78168;BME280;67410;42.698;23.378;2024-03-23T03:18:42;95643.75;;;0.50;81.65
78168;BME280;67410;42.698;23.378;2024-03-23T03:21:08;95657.97;;;0.46;80.57
78168;BME280;67410;42.698;23.378;2024-03-23T03:23:40;95656.34;;;0.45;81.55
78168;BME280;67410;42.698;23.378;2024-03-23T03:26:06;95657.38;;;0.52;81.81
78168;BME280;67410;42.698;23.378;2024-03-23T03:28:32;95660.03;;;0.42;81.00
78168;BME280;67410;42.698;23.378;2024-03-23T03:30:59;95663.31;;;0.44;82.35
78168;BME280;67410;42.698;23.378;2024-03-23T03:33:28;95656.63;;;0.42;81.64
78168;BME280;67410;42.698;23.378;2024-03-23T03:35:54;95664.78;;;0.47;81.44
78168;BME280;67410;42.698;23.378;2024-03-23T03:38:21;95666.69;;;0.45;81.11
78168;BME280;67410;42.698;23.378;2024-03-23T03:40:47;95657.09;;;0.37;81.29
78168;BME280;67410;42.698;23.378;2024-03-23T03:43:13;95657.59;;;0.41;81.50
78168;BME280;67410;42.698;23.378;2024-03-23T03:45:39;95660.47;;;0.38;80.87
78168;BME280;67410;42.698;23.378;2024-03-23T03:48:06;95662.56;;;0.34;80.81
78168;BME280;67410;42.698;23.378;2024-03-23T03:50:32;95668.41;;;0.36;81.44
78168;BME280;67410;42.698;23.378;2024-03-23T03:52:59;95661.38;;;0.28;81.09
78168;BME280;67410;42.698;23.378;2024-03-23T03:55:25;95661.16;;;0.22;80.75
78168;BME280;67410;42.698;23.378;2024-03-23T03:57:51;95658.59;;;0.22;81.58
78168;BME280;67410;42.698;23.378;2024-03-23T04:00:17;95662.94;;;0.21;82.06
78168;BME280;67410;42.698;23.378;2024-03-23T04:02:43;95658.22;;;0.17;82.11
78168;BME280;67410;42.698;23.378;2024-03-23T04:05:09;95659.84;;;0.18;82.45
78168;BME280;67410;42.698;23.378;2024-03-23T04:07:35;95661.47;;;0.19;82.24
78168;BME280;67410;42.698;23.378;2024-03-23T04:10:01;95663.09;;;0.20;82.41
78168;BME280;67410;42.698;23.378;2024-03-23T04:12:28;95666.66;;;0.19;82.84
78168;BME280;67410;42.698;23.378;2024-03-23T04:14:54;95665.16;;;0.16;82.52
78168;BME280;67410;42.698;23.378;2024-03-23T04:17:20;95671.31;;;0.15;82.84
78168;BME280;67410;42.698;23.378;2024-03-23T04:19:46;95676.34;;;0.17;82.88
78168;BME280;67410;42.698;23.378;2024-03-23T04:22:13;95681.66;;;0.15;82.60
78168;BME280;67410;42.698;23.378;2024-03-23T04:24:39;95673.75;;;0.17;82.85
78168;BME280;67410;42.698;23.378;2024-03-23T04:27:05;95671.00;;;0.18;83.03
78168;BME280;67410;42.698;23.378;2024-03-23T04:29:31;95668.94;;;0.22;82.47
78168;BME280;67410;42.698;23.378;2024-03-23T04:31:57;95670.19;;;0.18;81.73
78168;BME280;67410;42.698;23.378;2024-03-23T04:34:23;95676.47;;;0.15;81.93
78168;BME280;67410;42.698;23.378;2024-03-23T04:36:49;95679.34;;;0.12;82.29
78168;BME280;67410;42.698;23.378;2024-03-23T04:39:16;95673.22;;;0.13;83.02
78168;BME280;67410;42.698;23.378;2024-03-23T04:41:42;95678.78;;;0.18;83.48
78168;BME280;67410;42.698;23.378;2024-03-23T04:44:08;95684.91;;;0.17;81.45
78168;BME280;67410;42.698;23.378;2024-03-23T04:46:34;95686.53;;;0.18;81.55
78168;BME280;67410;42.698;23.378;2024-03-23T04:49:00;95682.41;;;0.25;82.06
78168;BME280;67410;42.698;23.378;2024-03-23T04:51:26;95686.97;;;0.31;82.67
78168;BME280;67410;42.698;23.378;2024-03-23T04:53:53;95681.50;;;0.34;81.97
78168;BME280;67410;42.698;23.378;2024-03-23T04:56:19;95691.94;;;0.43;82.60
78168;BME280;67410;42.698;23.378;2024-03-23T04:58:45;95689.44;;;0.51;82.05
78168;BME280;67410;42.698;23.378;2024-03-23T05:01:11;95693.03;;;0.58;81.36
78168;BME280;67410;42.698;23.378;2024-03-23T05:03:38;95700.28;;;0.72;81.94
78168;BME280;67410;42.698;23.378;2024-03-23T05:06:04;95692.44;;;0.82;80.88
78168;BME280;67410;42.698;23.378;2024-03-23T05:08:31;95685.34;;;0.92;81.30
78168;BME280;67410;42.698;23.378;2024-03-23T05:10:57;95687.25;;;1.08;80.41
78168;BME280;67410;42.698;23.378;2024-03-23T05:13:23;95690.31;;;1.71;78.15
78168;BME280;67410;42.698;23.378;2024-03-23T05:15:53;95686.09;;;2.36;74.97
78168;BME280;67410;42.698;23.378;2024-03-23T05:18:20;95680.41;;;2.90;71.98
78168;BME280;67410;42.698;23.378;2024-03-23T05:20:46;95682.66;;;3.72;68.89
78168;BME280;67410;42.698;23.378;2024-03-23T05:23:13;95674.44;;;4.46;65.57
78168;BME280;67410;42.698;23.378;2024-03-23T05:25:39;95675.47;;;5.34;61.82
78168;BME280;67410;42.698;23.378;2024-03-23T05:28:05;95669.91;;;5.37;60.69
78168;BME280;67410;42.698;23.378;2024-03-23T05:30:32;95676.09;;;5.81;59.69
78168;BME280;67410;42.698;23.378;2024-03-23T05:32:58;95667.78;;;6.06;58.98
78168;BME280;67410;42.698;23.378;2024-03-23T05:35:24;95676.91;;;7.17;56.53
78168;BME280;67410;42.698;23.378;2024-03-23T05:37:50;95683.91;;;7.66;54.33
78168;BME280;67410;42.698;23.378;2024-03-23T05:40:16;95677.16;;;8.32;53.19
78168;BME280;67410;42.698;23.378;2024-03-23T05:42:42;95680.66;;;8.66;51.21
78168;BME280;67410;42.698;23.378;2024-03-23T05:45:08;95678.91;;;8.99;50.76
78168;BME280;67410;42.698;23.378;2024-03-23T05:47:35;95671.84;;;9.00;49.73
78168;BME280;67410;42.698;23.378;2024-03-23T05:50:01;95674.03;;;9.16;50.30
78168;BME280;67410;42.698;23.378;2024-03-23T05:52:28;95680.31;;;9.15;49.87
78168;BME280;67410;42.698;23.378;2024-03-23T05:54:54;95664.66;;;9.79;48.56
78168;BME280;67410;42.698;23.378;2024-03-23T05:57:20;95656.63;;;10.12;49.04
78168;BME280;67410;42.698;23.378;2024-03-23T05:59:46;95668.13;;;10.31;47.97
78168;BME280;67410;42.698;23.378;2024-03-23T06:02:12;95662.75;;;10.51;46.85
78168;BME280;67410;42.698;23.378;2024-03-23T06:04:38;95667.63;;;10.85;46.42
78168;BME280;67410;42.698;23.378;2024-03-23T06:07:04;95670.31;;;11.53;45.18
78168;BME280;67410;42.698;23.378;2024-03-23T06:09:42;95663.13;;;12.22;43.44
78168;BME280;67410;42.698;23.378;2024-03-23T06:12:08;95675.72;;;11.40;44.68
78168;BME280;67410;42.698;23.378;2024-03-23T06:14:35;95662.34;;;10.85;45.22
78168;BME280;67410;42.698;23.378;2024-03-23T06:17:01;95663.13;;;10.61;45.55
78168;BME280;67410;42.698;23.378;2024-03-23T06:19:27;95661.81;;;11.02;44.75
78168;BME280;67410;42.698;23.378;2024-03-23T06:21:54;95660.63;;;11.23;44.71
78168;BME280;67410;42.698;23.378;2024-03-23T06:24:21;95658.94;;;11.78;43.87
78168;BME280;67410;42.698;23.378;2024-03-23T06:26:48;95659.09;;;11.83;45.59
78168;BME280;67410;42.698;23.378;2024-03-23T06:29:14;95656.56;;;11.70;43.59
78168;BME280;67410;42.698;23.378;2024-03-23T06:31:40;95656.41;;;11.46;44.02
78168;BME280;67410;42.698;23.378;2024-03-23T06:34:06;95659.50;;;11.37;44.48
78168;BME280;67410;42.698;23.378;2024-03-23T06:36:32;95660.16;;;12.60;41.94
78168;BME280;67410;42.698;23.378;2024-03-23T06:38:58;95659.63;;;12.58;41.43
78168;BME280;67410;42.698;23.378;2024-03-23T06:41:25;95667.34;;;12.71;41.99
78168;BME280;67410;42.698;23.378;2024-03-23T06:43:52;95661.06;;;13.26;41.92
78168;BME280;67410;42.698;23.378;2024-03-23T06:46:18;95665.22;;;12.92;41.67
78168;BME280;67410;42.698;23.378;2024-03-23T06:48:45;95665.66;;;13.42;41.07
78168;BME280;67410;42.698;23.378;2024-03-23T06:51:11;95657.72;;;13.30;39.70
78168;BME280;67410;42.698;23.378;2024-03-23T06:53:37;95652.84;;;13.97;39.06
78168;BME280;67410;42.698;23.378;2024-03-23T06:56:04;95662.09;;;13.48;40.71
78168;BME280;67410;42.698;23.378;2024-03-23T06:58:30;95646.44;;;13.81;39.38
78168;BME280;67410;42.698;23.378;2024-03-23T07:00:56;95649.66;;;13.72;39.86
78168;BME280;67410;42.698;23.378;2024-03-23T07:03:22;95651.25;;;14.08;39.70
78168;BME280;67410;42.698;23.378;2024-03-23T07:05:49;95648.19;;;14.68;38.47
78168;BME280;67410;42.698;23.378;2024-03-23T07:08:15;95644.44;;;14.12;39.70
78168;BME280;67410;42.698;23.378;2024-03-23T07:10:47;95637.97;;;14.19;38.80
78168;BME280;67410;42.698;23.378;2024-03-23T07:13:13;95638.09;;;14.53;38.61
78168;BME280;67410;42.698;23.378;2024-03-23T07:15:39;95640.69;;;14.48;40.27
78168;BME280;67410;42.698;23.378;2024-03-23T07:18:05;95641.72;;;14.75;40.13
78168;BME280;67410;42.698;23.378;2024-03-23T07:20:31;95623.94;;;14.19;41.28
78168;BME280;67410;42.698;23.378;2024-03-23T07:22:57;95641.25;;;15.45;38.24
78168;BME280;67410;42.698;23.378;2024-03-23T07:25:23;95628.91;;;15.89;36.11
78168;BME280;67410;42.698;23.378;2024-03-23T07:27:53;95631.78;;;15.33;36.23
78168;BME280;67410;42.698;23.378;2024-03-23T07:30:19;95623.88;;;15.71;35.67
78168;BME280;67410;42.698;23.378;2024-03-23T07:32:45;95629.38;;;15.14;37.13
78168;BME280;67410;42.698;23.378;2024-03-23T07:35:11;95625.72;;;15.71;36.11
78168;BME280;67410;42.698;23.378;2024-03-23T07:37:37;95619.13;;;15.73;39.87
78168;BME280;67410;42.698;23.378;2024-03-23T07:40:04;95616.69;;;15.00;37.26
78168;BME280;67410;42.698;23.378;2024-03-23T07:42:30;95613.09;;;15.78;36.05
78168;BME280;67410;42.698;23.378;2024-03-23T07:44:56;95616.59;;;16.49;37.09
78168;BME280;67410;42.698;23.378;2024-03-23T07:47:23;95623.63;;;16.60;37.82
78168;BME280;67410;42.698;23.378;2024-03-23T07:49:49;95612.88;;;15.63;40.42
78168;BME280;67410;42.698;23.378;2024-03-23T07:52:15;95611.75;;;15.97;39.44
78168;BME280;67410;42.698;23.378;2024-03-23T07:54:41;95606.84;;;16.81;33.86
78168;BME280;67410;42.698;23.378;2024-03-23T07:57:07;95611.63;;;16.57;34.89
78168;BME280;67410;42.698;23.378;2024-03-23T07:59:33;95604.09;;;17.35;34.01
78168;BME280;67410;42.698;23.378;2024-03-23T08:02:00;95606.97;;;17.29;35.65
78168;BME280;67410;42.698;23.378;2024-03-23T08:04:27;95608.84;;;16.20;38.92
78168;BME280;67410;42.698;23.378;2024-03-23T08:06:53;95601.41;;;17.30;33.32
78168;BME280;67410;42.698;23.378;2024-03-23T08:09:20;95604.03;;;16.39;37.54
78168;BME280;67410;42.698;23.378;2024-03-23T08:11:46;95601.72;;;16.26;36.39
78168;BME280;67410;42.698;23.378;2024-03-23T08:14:12;95595.88;;;17.79;33.66
78168;BME280;67410;42.698;23.378;2024-03-23T08:16:38;95605.94;;;18.19;35.14
78168;BME280;67410;42.698;23.378;2024-03-23T08:19:04;95602.00;;;17.74;34.63
78168;BME280;67410;42.698;23.378;2024-03-23T08:21:31;95598.44;;;17.64;34.76
78168;BME280;67410;42.698;23.378;2024-03-23T08:23:57;95593.09;;;17.21;32.16
78168;BME280;67410;42.698;23.378;2024-03-23T08:26:23;95593.00;;;16.79;33.75
78168;BME280;67410;42.698;23.378;2024-03-23T08:28:49;95592.56;;;18.04;32.78
78168;BME280;67410;42.698;23.378;2024-03-23T08:31:15;95581.72;;;18.36;32.15
78168;BME280;67410;42.698;23.378;2024-03-23T08:33:41;95582.41;;;18.06;33.43
78168;BME280;67410;42.698;23.378;2024-03-23T08:36:10;95581.50;;;17.80;34.66
78168;BME280;67410;42.698;23.378;2024-03-23T08:38:40;95580.38;;;18.38;32.97
78168;BME280;67410;42.698;23.378;2024-03-23T08:41:08;95578.13;;;18.82;32.00
78168;BME280;67410;42.698;23.378;2024-03-23T08:43:39;95576.78;;;19.15;32.43
78168;BME280;67410;42.698;23.378;2024-03-23T08:46:05;95577.94;;;17.27;32.03
78168;BME280;67410;42.698;23.378;2024-03-23T08:48:36;95565.97;;;18.34;32.98
78168;BME280;67410;42.698;23.378;2024-03-23T08:51:07;95566.88;;;18.65;30.32
78168;BME280;67410;42.698;23.378;2024-03-23T08:53:35;95561.56;;;18.96;31.94
78168;BME280;67410;42.698;23.378;2024-03-23T08:56:02;95557.25;;;18.54;32.09
78168;BME280;67410;42.698;23.378;2024-03-23T08:58:30;95553.00;;;19.65;27.11
78168;BME280;67410;42.698;23.378;2024-03-23T09:03:31;95545.81;;;19.35;29.88
78168;BME280;67410;42.698;23.378;2024-03-23T09:05:57;95539.28;;;19.86;28.99
78168;BME280;67410;42.698;23.378;2024-03-23T09:08:24;95544.75;;;20.20;30.25
78168;BME280;67410;42.698;23.378;2024-03-23T09:10:52;95542.03;;;19.66;29.35
78168;BME280;67410;42.698;23.378;2024-03-23T09:13:18;95530.44;;;19.96;29.62
78168;BME280;67410;42.698;23.378;2024-03-23T09:15:49;95523.16;;;19.02;29.66
78168;BME280;67410;42.698;23.378;2024-03-23T09:18:15;95520.16;;;18.42;31.11
78168;BME280;67410;42.698;23.378;2024-03-23T09:20:42;95509.22;;;18.44;30.53
78168;BME280;67410;42.698;23.378;2024-03-23T09:23:08;95506.06;;;18.72;30.25
78168;BME280;67410;42.698;23.378;2024-03-23T09:25:40;95514.56;;;19.20;30.77
78168;BME280;67410;42.698;23.378;2024-03-23T09:28:07;95507.41;;;18.75;30.15
78168;BME280;67410;42.698;23.378;2024-03-23T09:30:36;95502.88;;;19.01;31.72
78168;BME280;67410;42.698;23.378;2024-03-23T09:33:11;95497.44;;;19.56;29.26
78168;BME280;67410;42.698;23.378;2024-03-23T09:35:42;95491.19;;;19.86;30.10
78168;BME280;67410;42.698;23.378;2024-03-23T09:38:08;95486.06;;;20.44;28.57
78168;BME280;67410;42.698;23.378;2024-03-23T09:40:44;95483.72;;;19.83;28.53
78168;BME280;67410;42.698;23.378;2024-03-23T09:43:11;95483.53;;;19.59;29.41
78168;BME280;67410;42.698;23.378;2024-03-23T09:45:41;95476.88;;;19.57;29.35
78168;BME280;67410;42.698;23.378;2024-03-23T09:48:08;95471.41;;;20.32;29.27
78168;BME280;67410;42.698;23.378;2024-03-23T09:50:42;95467.94;;;18.77;30.38
78168;BME280;67410;42.698;23.378;2024-03-23T09:53:11;95466.06;;;19.82;28.38
78168;BME280;67410;42.698;23.378;2024-03-23T09:55:38;95454.84;;;20.69;30.94
78168;BME280;67410;42.698;23.378;2024-03-23T09:58:05;95458.34;;;20.69;29.59
78168;BME280;67410;42.698;23.378;2024-03-23T10:00:32;95451.06;;;21.56;28.49
78168;BME280;67410;42.698;23.378;2024-03-23T10:02:59;95442.06;;;21.47;28.29
78168;BME280;67410;42.698;23.378;2024-03-23T10:05:29;95444.16;;;20.29;27.31
78168;BME280;67410;42.698;23.378;2024-03-23T10:07:55;95444.09;;;20.45;31.08
78168;BME280;67410;42.698;23.378;2024-03-23T10:10:21;95435.56;;;20.33;29.15
78168;BME280;67410;42.698;23.378;2024-03-23T10:12:49;95435.84;;;20.99;26.39
78168;BME280;67410;42.698;23.378;2024-03-23T10:15:23;95433.28;;;22.08;26.75
78168;BME280;67410;42.698;23.378;2024-03-23T10:17:50;95429.44;;;22.84;23.78
78168;BME280;67410;42.698;23.378;2024-03-23T10:20:23;95420.06;;;22.31;26.92
78168;BME280;67410;42.698;23.378;2024-03-23T10:22:49;95420.03;;;20.40;30.37
78168;BME280;67410;42.698;23.378;2024-03-23T10:25:17;95412.91;;;22.07;26.05
78168;BME280;67410;42.698;23.378;2024-03-23T10:27:44;95411.59;;;22.23;24.34
78168;BME280;67410;42.698;23.378;2024-03-23T10:30:14;95405.28;;;22.66;24.01
78168;BME280;67410;42.698;23.378;2024-03-23T10:32:43;95401.00;;;22.32;23.58
78168;BME280;67410;42.698;23.378;2024-03-23T10:35:16;95396.34;;;22.00;25.24
78168;BME280;67410;42.698;23.378;2024-03-23T10:37:45;95391.03;;;22.51;25.40
78168;BME280;67410;42.698;23.378;2024-03-23T10:40:13;95386.16;;;23.00;26.32
78168;BME280;67410;42.698;23.378;2024-03-23T10:42:39;95372.16;;;22.89;24.70
78168;BME280;67410;42.698;23.378;2024-03-23T10:45:07;95371.47;;;22.65;26.25
78168;BME280;67410;42.698;23.378;2024-03-23T10:47:35;95360.97;;;22.17;27.83
78168;BME280;67410;42.698;23.378;2024-03-23T10:50:03;95354.25;;;23.25;24.22
78168;BME280;67410;42.698;23.378;2024-03-23T10:52:33;95359.97;;;23.87;23.50
78168;BME280;67410;42.698;23.378;2024-03-23T10:55:01;95346.13;;;22.71;27.84
78168;BME280;67410;42.698;23.378;2024-03-23T10:57:38;95342.06;;;22.27;24.79
78168;BME280;67410;42.698;23.378;2024-03-23T11:00:07;95335.78;;;22.64;23.95
78168;BME280;67410;42.698;23.378;2024-03-23T11:02:34;95327.38;;;22.84;25.39
78168;BME280;67410;42.698;23.378;2024-03-23T11:05:00;95314.59;;;22.95;25.90
78168;BME280;67410;42.698;23.378;2024-03-23T11:09:53;95311.75;;;23.27;24.48
78168;BME280;67410;42.698;23.378;2024-03-23T11:15:11;95305.88;;;23.39;23.83
78168;BME280;67410;42.698;23.378;2024-03-23T11:17:37;95298.44;;;23.09;23.77
78168;BME280;67410;42.698;23.378;2024-03-23T11:20:07;95289.09;;;22.79;21.83
78168;BME280;67410;42.698;23.378;2024-03-23T11:22:45;95286.22;;;22.29;27.47
78168;BME280;67410;42.698;23.378;2024-03-23T11:25:16;95281.03;;;23.06;22.87
78168;BME280;67410;42.698;23.378;2024-03-23T11:27:44;95273.44;;;22.40;25.88
78168;BME280;67410;42.698;23.378;2024-03-23T11:30:18;95283.94;;;23.10;23.08
78168;BME280;67410;42.698;23.378;2024-03-23T11:32:45;95272.53;;;23.40;22.39
78168;BME280;67410;42.698;23.378;2024-03-23T11:35:44;95263.25;;;23.60;24.76
78168;BME280;67410;42.698;23.378;2024-03-23T11:38:14;95260.72;;;24.00;22.88
78168;BME280;67410;42.698;23.378;2024-03-23T11:40:42;95258.97;;;23.59;23.96
78168;BME280;67410;42.698;23.378;2024-03-23T11:43:10;95249.03;;;22.82;23.75
78168;BME280;67410;42.698;23.378;2024-03-23T11:45:45;95251.28;;;23.88;24.97
78168;BME280;67410;42.698;23.378;2024-03-23T11:48:13;95238.84;;;23.07;23.61
78168;BME280;67410;42.698;23.378;2024-03-23T11:50:41;95244.59;;;23.77;21.20
78168;BME280;67410;42.698;23.378;2024-03-23T11:53:09;95228.97;;;23.88;20.52
78168;BME280;67410;42.698;23.378;2024-03-23T11:55:52;95230.34;;;23.27;23.84
78168;BME280;67410;42.698;23.378;2024-03-23T11:58:20;95210.28;;;23.83;21.73
78168;BME280;67410;42.698;23.378;2024-03-23T12:00:54;95214.81;;;22.88;21.60
78168;BME280;67410;42.698;23.378;2024-03-23T12:03:22;95200.84;;;23.49;22.77
78168;BME280;67410;42.698;23.378;2024-03-23T12:05:52;95207.81;;;23.50;24.13
78168;BME280;67410;42.698;23.378;2024-03-23T12:08:39;95197.47;;;23.44;20.64
78168;BME280;67410;42.698;23.378;2024-03-23T12:13:32;95186.72;;;23.08;25.35
78168;BME280;67410;42.698;23.378;2024-03-23T12:16:18;95185.53;;;23.50;24.77
78168;BME280;67410;42.698;23.378;2024-03-23T12:18:47;95175.59;;;23.14;20.35
78168;BME280;67410;42.698;23.378;2024-03-23T12:21:14;95174.69;;;23.05;20.86
78168;BME280;67410;42.698;23.378;2024-03-23T12:23:40;95169.34;;;23.63;21.34
78168;BME280;67410;42.698;23.378;2024-03-23T12:26:06;95164.66;;;23.69;22.29
78168;BME280;67410;42.698;23.378;2024-03-23T12:28:33;95164.56;;;23.83;20.11
78168;BME280;67410;42.698;23.378;2024-03-23T12:30:59;95163.25;;;23.72;21.35
78168;BME280;67410;42.698;23.378;2024-03-23T12:33:25;95156.47;;;24.05;22.41
78168;BME280;67410;42.698;23.378;2024-03-23T12:35:51;95148.06;;;24.29;19.88
78168;BME280;67410;42.698;23.378;2024-03-23T12:38:18;95147.56;;;24.27;19.26
78168;BME280;67410;42.698;23.378;2024-03-23T12:40:50;95138.34;;;22.85;20.10
78168;BME280;67410;42.698;23.378;2024-03-23T12:43:17;95132.50;;;22.01;21.35
78168;BME280;67410;42.698;23.378;2024-03-23T12:45:49;95130.31;;;21.24;23.02
78168;BME280;67410;42.698;23.378;2024-03-23T12:48:16;95129.81;;;20.42;23.16
78168;BME280;67410;42.698;23.378;2024-03-23T12:50:42;95124.84;;;21.11;25.43
78168;BME280;67410;42.698;23.378;2024-03-23T12:53:08;95117.16;;;21.74;22.69
78168;BME280;67410;42.698;23.378;2024-03-23T12:55:35;95115.50;;;21.46;22.88
78168;BME280;67410;42.698;23.378;2024-03-23T12:58:01;95114.91;;;21.49;24.86
78168;BME280;67410;42.698;23.378;2024-03-23T13:00:27;95110.09;;;22.11;21.62
78168;BME280;67410;42.698;23.378;2024-03-23T13:02:53;95102.03;;;22.74;21.21
78168;BME280;67410;42.698;23.378;2024-03-23T13:05:19;95105.75;;;23.14;22.56
78168;BME280;67410;42.698;23.378;2024-03-23T13:07:45;95101.09;;;22.70;22.14
78168;BME280;67410;42.698;23.378;2024-03-23T13:10:12;95096.53;;;22.16;23.28
78168;BME280;67410;42.698;23.378;2024-03-23T13:12:39;95103.47;;;22.58;22.19
78168;BME280;67410;42.698;23.378;2024-03-23T13:15:05;95086.88;;;22.56;23.42
78168;BME280;67410;42.698;23.378;2024-03-23T13:17:31;95082.56;;;22.82;22.01
78168;BME280;67410;42.698;23.378;2024-03-23T13:19:57;95078.13;;;23.45;22.52
78168;BME280;67410;42.698;23.378;2024-03-23T13:22:24;95075.88;;;23.38;22.64
78168;BME280;67410;42.698;23.378;2024-03-23T13:24:50;95077.50;;;24.01;21.84
78168;BME280;67410;42.698;23.378;2024-03-23T13:27:16;95076.56;;;24.54;21.84
78168;BME280;67410;42.698;23.378;2024-03-23T13:29:42;95073.56;;;24.64;20.82
78168;BME280;67410;42.698;23.378;2024-03-23T13:32:08;95058.72;;;24.18;21.50
78168;BME280;67410;42.698;23.378;2024-03-23T13:34:34;95059.56;;;24.27;19.75
78168;BME280;67410;42.698;23.378;2024-03-23T13:37:01;95064.97;;;24.45;18.82
78168;BME280;67410;42.698;23.378;2024-03-23T13:39:27;95055.41;;;24.21;20.03
78168;BME280;67410;42.698;23.378;2024-03-23T13:41:54;95061.41;;;22.67;20.35
78168;BME280;67410;42.698;23.378;2024-03-23T13:44:23;95053.75;;;22.24;19.77
78168;BME280;67410;42.698;23.378;2024-03-23T13:46:49;95045.59;;;22.29;20.23
78168;BME280;67410;42.698;23.378;2024-03-23T13:49:30;95036.44;;;21.89;20.69
78168;BME280;67410;42.698;23.378;2024-03-23T13:51:58;95038.78;;;21.04;21.38
78168;BME280;67410;42.698;23.378;2024-03-23T13:54:25;95033.53;;;20.61;21.72
78168;BME280;67410;42.698;23.378;2024-03-23T13:56:53;95033.16;;;21.19;21.55
78168;BME280;67410;42.698;23.378;2024-03-23T13:59:20;95032.56;;;21.54;21.98